Time;durP1;ratioP1;P1;durP2;ratioP2;P2;SDS_P1;SDS_P2;PMS_P1;PMS_P2;Temp;Humidity;BMP_temperature;BMP_pressure;BME280_temperature;BME280_humidity;BME280_pressure;Samples;Min_cycle;Max_cycle;Signal;HPM_P1;HPM_P2
2021/07/25 00:02:05;;;;;;;24.00;10.80;;;;;;;17.32;93.33;96044.22;3547207;40;20432;-72
2021/07/25 00:04:33;;;;;;;18.30;10.10;;;;;;;17.31;93.06;96038.13;3547729;40;20495;-71
2021/07/25 00:07:01;;;;;;;18.07;11.60;;;;;;;17.32;93.27;96038.94;3549684;40;20847;-71
2021/07/25 00:09:29;;;;;;;15.57;11.30;;;;;;;17.38;92.59;96040.94;3547768;40;20539;-71
2021/07/25 00:11:58;;;;;;;26.80;10.87;;;;;;;17.19;93.88;96029.66;3547867;40;20491;-71
2021/07/25 00:14:26;;;;;;;19.33;11.40;;;;;;;17.06;95.10;96029.25;3549786;40;20817;-71
2021/07/25 00:16:55;;;;;;;32.23;11.80;;;;;;;17.10;94.78;96040.34;3547711;40;20814;-73
2021/07/25 00:19:23;;;;;;;21.80;11.47;;;;;;;17.07;94.93;96049.44;3548012;40;20438;-73
2021/07/25 00:21:51;;;;;;;19.07;10.87;;;;;;;17.30;95.37;96046.22;3547993;40;21134;-73
2021/07/25 00:24:23;;;;;;;16.70;10.40;;;;;;;17.34;95.79;96053.66;3548458;40;21142;-71
2021/07/25 00:26:51;;;;;;;15.93;10.53;;;;;;;17.33;95.28;96057.31;3547566;40;20461;-71
2021/07/25 00:29:20;;;;;;;22.53;11.10;;;;;;;17.34;95.19;96060.78;3549227;40;20976;-73
2021/07/25 00:31:48;;;;;;;22.43;10.10;;;;;;;17.07;95.81;96067.97;3549630;40;20610;-72
2021/07/25 00:34:16;;;;;;;23.60;10.80;;;;;;;17.15;95.11;96075.06;3547474;40;20782;-72
2021/07/25 00:36:44;;;;;;;27.40;11.50;;;;;;;17.26;95.36;96071.34;3547875;40;20444;-73
2021/07/25 00:39:12;;;;;;;22.23;10.60;;;;;;;17.18;94.65;96065.00;3549025;40;20879;-71
2021/07/25 00:41:40;;;;;;;18.27;11.80;;;;;;;17.20;95.37;96063.03;3537948;40;20549;-71
2021/07/25 00:44:09;;;;;;;21.67;11.60;;;;;;;17.12;95.02;96063.00;3550116;40;20435;-73
2021/07/25 00:46:38;;;;;;;25.43;12.60;;;;;;;17.06;95.15;96054.88;3546887;40;20957;-71
2021/07/25 00:49:06;;;;;;;17.30;11.50;;;;;;;17.22;96.24;96043.53;3548417;40;20444;-74
2021/07/25 00:51:34;;;;;;;21.17;11.57;;;;;;;17.30;95.08;96036.44;3547040;40;20827;-72
2021/07/25 00:54:03;;;;;;;17.47;11.20;;;;;;;17.30;94.05;96036.44;3550044;40;20875;-72
2021/07/25 00:56:31;;;;;;;19.77;11.43;;;;;;;17.11;95.19;96021.69;3552396;40;20479;-73
2021/07/25 00:58:59;;;;;;;18.53;11.50;;;;;;;16.83;97.32;96004.38;3549904;40;20613;-74
2021/07/25 01:01:27;;;;;;;23.93;12.60;;;;;;;16.90;97.06;95974.50;3554453;40;20486;-74
2021/07/25 01:04:10;;;;;;;24.03;12.83;;;;;;;17.08;95.20;95952.41;3553071;40;20694;-74
2021/07/25 01:06:51;;;;;;;24.00;13.20;;;;;;;16.91;96.96;95970.03;3547736;40;21111;-73
2021/07/25 01:09:23;;;;;;;22.20;13.17;;;;;;;17.06;96.34;95986.13;3548730;40;20759;-74
2021/07/25 01:11:56;;;;;;;27.30;13.27;;;;;;;17.13;95.61;95995.91;3551340;40;20419;-75
2021/07/25 01:14:28;;;;;;;20.93;12.20;;;;;;;17.14;95.34;96008.13;3547471;40;20445;-72
2021/07/25 01:17:29;;;;;;;23.40;13.87;;;;;;;17.12;95.28;96015.38;3548543;40;20705;-73
2021/07/25 01:20:00;;;;;;;19.20;10.90;;;;;;;17.09;94.80;96021.03;3549607;40;20486;-74
2021/07/25 01:22:31;;;;;;;27.30;13.50;;;;;;;17.13;95.12;96017.06;3549393;40;20855;-74
2021/07/25 01:25:01;;;;;;;23.20;12.10;;;;;;;17.10;94.87;96022.66;3546825;40;20758;-74
2021/07/25 01:27:35;;;;;;;28.77;11.57;;;;;;;17.15;94.17;96017.72;3545422;40;20863;-74
2021/07/25 01:30:06;;;;;;;26.83;13.47;;;;;;;17.12;95.25;96030.44;3549656;40;20735;-76
2021/07/25 01:32:34;;;;;;;27.73;14.40;;;;;;;16.95;95.84;96016.31;3550231;40;21161;-73
2021/07/25 01:35:06;;;;;;;25.97;14.27;;;;;;;17.02;96.53;96027.94;3549062;40;20486;-73
2021/07/25 01:37:35;;;;;;;28.40;13.83;;;;;;;17.04;97.05;96031.25;3549292;40;20905;-74
2021/07/25 01:40:11;;;;;;;33.57;15.43;;;;;;;16.99;97.05;96022.94;3546849;40;20514;-73
2021/07/25 01:42:40;;;;;;;32.80;14.80;;;;;;;17.01;96.89;96023.59;3547835;40;20549;-73
2021/07/25 01:45:09;;;;;;;28.90;15.40;;;;;;;17.00;96.75;96019.31;3537939;40;20852;-75
2021/07/25 01:47:36;;;;;;;23.47;14.13;;;;;;;17.02;96.65;96012.06;3554741;40;20435;-72
2021/07/25 01:50:08;;;;;;;37.77;14.63;;;;;;;16.94;97.04;96019.97;3530275;40;20593;-73
2021/07/25 01:52:35;;;;;;;31.67;14.80;;;;;;;16.93;97.09;96027.03;3549463;40;20436;-74
2021/07/25 01:55:04;;;;;;;21.83;14.13;;;;;;;16.90;97.07;96031.84;3550283;40;20946;-73
2021/07/25 01:57:32;;;;;;;35.37;13.20;;;;;;;16.77;97.47;96029.59;3547755;40;20437;-72
2021/07/25 02:02:42;;;;;;;29.97;17.17;;;;;;;16.73;97.31;96023.78;3548803;40;20771;-72
2021/07/25 02:05:12;;;;;;;22.07;14.00;;;;;;;16.66;98.20;96030.72;3546998;40;20735;-73
2021/07/25 02:07:40;;;;;;;24.03;8.30;;;;;;;16.58;95.20;96030.63;3547727;40;20435;-71
2021/07/25 02:10:09;;;;;;;15.77;8.23;;;;;;;16.65;94.28;96028.22;3548490;40;21019;-72
2021/07/25 02:12:37;;;;;;;20.80;8.73;;;;;;;16.67;93.56;96024.41;3547858;40;20537;-72
2021/07/25 02:15:06;;;;;;;10.27;7.00;;;;;;;16.57;94.08;96015.78;3549296;40;20467;-73
2021/07/25 02:17:34;;;;;;;13.70;7.80;;;;;;;16.59;93.79;96014.63;3537768;40;20474;-72
2021/07/25 02:20:09;;;;;;;16.80;8.20;;;;;;;16.60;93.88;96010.16;3555609;40;21043;-71
2021/07/25 02:22:38;;;;;;;15.83;7.73;;;;;;;16.57;93.66;96013.97;3553714;40;20889;-71
2021/07/25 02:25:08;;;;;;;19.17;7.37;;;;;;;16.55;93.86;96001.91;3546112;40;20654;-71
2021/07/25 02:27:36;;;;;;;18.87;7.83;;;;;;;16.58;93.79;95998.91;3550202;40;20534;-70
2021/07/25 02:30:06;;;;;;;21.23;8.80;;;;;;;16.59;93.98;96011.16;3547719;40;20868;-72
2021/07/25 02:32:38;;;;;;;13.07;7.60;;;;;;;16.60;94.11;95997.81;3548399;40;20464;-73
2021/07/25 02:35:07;;;;;;;15.93;6.33;;;;;;;16.65;93.52;95999.97;3548325;40;20467;-73
2021/07/25 02:37:35;;;;;;;15.70;8.63;;;;;;;16.68;93.94;96010.22;3549649;40;20738;-75
2021/07/25 02:40:06;;;;;;;14.00;7.37;;;;;;;16.64;94.00;96026.53;3549889;40;20475;-74
2021/07/25 02:42:34;;;;;;;13.53;8.40;;;;;;;16.64;94.77;96026.53;3547396;40;20864;-72
2021/07/25 02:45:05;;;;;;;11.93;7.37;;;;;;;16.53;94.55;96028.47;3547817;40;20478;-72
2021/07/25 02:47:33;;;;;;;11.53;7.37;;;;;;;16.52;94.56;96025.97;3548209;40;20432;-74
2021/07/25 02:50:01;;;;;;;11.57;7.73;;;;;;;16.52;94.68;96023.34;3547898;40;20522;-72
2021/07/25 02:52:29;;;;;;;12.63;7.87;;;;;;;16.58;94.09;96028.84;3549197;40;20518;-72
2021/07/25 02:54:57;;;;;;;11.77;7.77;;;;;;;16.56;95.28;96024.69;3548901;40;20554;-71
2021/07/25 02:57:26;;;;;;;17.13;8.70;;;;;;;16.48;95.15;96019.34;3548164;40;21074;-73
2021/07/25 02:59:54;;;;;;;14.20;7.87;;;;;;;16.51;95.50;96016.41;3548805;40;21326;-71
2021/07/25 03:02:22;;;;;;;12.53;7.70;;;;;;;16.51;96.11;96011.94;3547366;40;20957;-73
2021/07/25 03:04:51;;;;;;;17.90;7.93;;;;;;;16.43;96.35;96016.38;3546550;40;20448;-72
2021/07/25 03:07:19;;;;;;;13.37;7.40;;;;;;;16.50;96.40;96015.56;3546019;40;20460;-70
2021/07/25 03:09:47;;;;;;;13.20;8.03;;;;;;;16.62;96.42;96024.06;3549614;40;20468;-72
2021/07/25 03:12:15;;;;;;;21.20;9.47;;;;;;;16.57;96.10;96021.06;3548349;40;20803;-71
2021/07/25 03:14:44;;;;;;;16.27;8.30;;;;;;;16.60;96.08;96026.03;3548076;40;20476;-72
2021/07/25 03:17:12;;;;;;;13.77;7.20;;;;;;;16.60;95.74;96028.66;3548533;40;20451;-71
2021/07/25 03:19:40;;;;;;;18.90;7.93;;;;;;;16.55;95.60;96037.06;3550104;40;20949;-71
2021/07/25 03:22:09;;;;;;;14.47;6.87;;;;;;;16.54;95.67;96034.59;3548307;40;20530;-72
2021/07/25 03:24:37;;;;;;;12.70;8.07;;;;;;;16.46;95.25;96031.91;3550110;40;20462;-73
2021/07/25 03:27:05;;;;;;;15.50;6.40;;;;;;;16.36;95.21;96032.00;3547953;40;20658;-73
2021/07/25 03:29:33;;;;;;;15.83;8.23;;;;;;;16.28;95.55;96035.41;3548226;40;20564;-71
2021/07/25 03:32:03;;;;;;;17.00;8.93;;;;;;;16.38;96.12;96037.97;3547680;40;20459;-72
2021/07/25 03:34:32;;;;;;;15.97;8.80;;;;;;;16.44;95.83;96033.88;3537076;40;20454;-73
2021/07/25 03:37:02;;;;;;;16.17;8.40;;;;;;;16.43;95.28;96038.34;3529031;40;20784;-73
2021/07/25 03:39:31;;;;;;;14.63;8.40;;;;;;;16.33;95.84;96042.91;3546425;40;20436;-71
2021/07/25 03:41:59;;;;;;;12.87;7.20;;;;;;;16.29;95.73;96037.09;3547997;40;20427;-73
2021/07/25 03:44:27;;;;;;;12.27;7.97;;;;;;;16.35;96.11;96044.38;3545508;40;20444;-72
2021/07/25 03:46:55;;;;;;;14.80;8.27;;;;;;;16.38;96.21;96036.13;3547475;40;21209;-71
2021/07/25 03:49:25;;;;;;;14.13;8.37;;;;;;;16.40;96.12;96043.91;3547077;40;20752;-71
2021/07/25 03:51:53;;;;;;;20.60;8.07;;;;;;;16.45;96.12;96044.28;3546509;40;20475;-71
2021/07/25 03:54:21;;;;;;;23.07;8.47;;;;;;;16.45;95.37;96052.22;3546586;40;20820;-73
2021/07/25 03:56:49;;;;;;;19.93;9.40;;;;;;;16.07;97.10;96059.50;3545612;40;20518;-71
2021/07/25 03:59:17;;;;;;;13.83;7.70;;;;;;;15.75;97.69;96060.88;3547744;40;20577;-71
2021/07/25 04:01:46;;;;;;;12.40;8.57;;;;;;;16.09;97.22;96038.25;3540190;40;20474;-73
2021/07/25 04:04:14;;;;;;;12.03;8.47;;;;;;;16.29;96.85;96044.16;3547547;40;20443;-72
2021/07/25 04:06:44;;;;;;;20.47;8.70;;;;;;;16.43;96.61;96043.63;3545426;40;21322;-73
2021/07/25 04:09:12;;;;;;;18.27;8.37;;;;;;;16.41;95.67;96043.75;3547567;40;20488;-71
2021/07/25 04:11:40;;;;;;;19.97;9.90;;;;;;;16.38;96.52;96046.69;3545833;40;20605;-72
2021/07/25 04:14:07;;;;;;;14.37;9.50;;;;;;;16.43;96.18;96040.97;3547601;40;20815;-72
2021/07/25 04:16:35;;;;;;;14.77;9.30;;;;;;;16.63;95.88;96033.66;3548788;40;20564;-72
2021/07/25 04:19:03;;;;;;;13.17;8.40;;;;;;;16.73;95.95;96039.66;3547268;40;20812;-72
2021/07/25 04:21:31;;;;;;;11.63;8.47;;;;;;;16.78;95.59;96045.31;3546169;40;20529;-72
2021/07/25 04:24:00;;;;;;;12.07;8.10;;;;;;;16.72;95.37;96043.28;3547269;40;20525;-74
2021/07/25 04:26:29;;;;;;;16.97;7.80;;;;;;;16.65;95.60;96046.72;3549675;40;20648;-73
2021/07/25 04:28:57;;;;;;;18.30;8.40;;;;;;;16.71;96.40;96052.19;3547299;40;20836;-72
2021/07/25 04:31:25;;;;;;;16.60;8.57;;;;;;;16.68;95.94;96046.38;3548618;40;20813;-73
2021/07/25 04:33:55;;;;;;;12.60;7.97;;;;;;;16.81;95.19;96057.38;3547469;40;20452;-73
2021/07/25 04:36:27;;;;;;;14.40;7.73;;;;;;;16.81;95.00;96054.72;3547949;40;20526;-73
2021/07/25 04:38:56;;;;;;;13.93;8.00;;;;;;;16.81;93.97;96057.38;3550020;40;20570;-72
2021/07/25 04:41:27;;;;;;;16.03;8.60;;;;;;;17.03;93.92;96055.19;3548432;40;20501;-72
2021/07/25 04:44:02;;;;;;;13.77;8.30;;;;;;;17.07;94.75;96056.53;3547414;40;20448;-71
2021/07/25 04:46:33;;;;;;;31.63;8.50;;;;;;;17.23;94.42;96061.91;3547666;40;20500;-73
2021/07/25 04:49:07;;;;;;;25.00;9.70;;;;;;;17.15;95.21;96065.34;3550759;40;20746;-72
2021/07/25 04:51:38;;;;;;;16.00;8.40;;;;;;;16.94;93.70;96055.16;3548434;40;20694;-74
2021/07/25 04:54:09;;;;;;;23.50;8.60;;;;;;;16.64;94.63;96061.75;3549885;40;21085;-74
2021/07/25 04:56:54;;;;;;;26.93;7.40;;;;;;;16.37;96.94;96063.56;3546968;40;20518;-73
2021/07/25 04:59:26;;;;;;;17.33;8.00;;;;;;;16.74;96.63;96065.13;3548043;40;20444;-72
2021/07/25 05:01:58;;;;;;;17.97;8.10;;;;;;;17.00;96.11;96072.22;3549294;40;20832;-73
2021/07/25 05:04:28;;;;;;;14.73;7.43;;;;;;;17.13;95.33;96075.25;3547255;40;20434;-75
2021/07/25 05:06:58;;;;;;;11.80;7.93;;;;;;;17.31;94.79;96074.34;3547023;40;20764;-73
2021/07/25 05:09:26;;;;;;;13.40;7.70;;;;;;;17.30;92.59;96080.59;3546470;40;20775;-72
2021/07/25 05:12:01;;;;;;;19.33;7.57;;;;;;;17.01;91.91;96076.50;3547241;40;20804;-73
2021/07/25 05:14:34;;;;;;;12.10;6.70;;;;;;;17.17;92.34;96083.69;3549132;40;21164;-72
2021/07/25 05:17:04;;;;;;;11.57;6.90;;;;;;;17.26;91.26;96088.03;3548777;40;20529;-73
2021/07/25 05:19:49;;;;;;;13.43;7.13;;;;;;;17.17;91.34;96088.97;3548549;40;20458;-73
2021/07/25 05:22:40;;;;;;;15.97;7.20;;;;;;;16.98;92.68;96090.06;3545484;40;20930;-72
2021/07/25 05:25:10;;;;;;;9.77;6.37;;;;;;;16.94;92.73;96094.00;3547222;40;20565;-72
2021/07/25 05:27:44;;;;;;;11.43;7.20;;;;;;;17.10;86.30;96101.19;3550563;40;20502;-72
2021/07/25 05:30:15;;;;;;;11.00;6.23;;;;;;;17.09;92.60;96096.88;3550083;40;20673;-73
2021/07/25 05:32:43;;;;;;;16.67;6.57;;;;;;;17.25;90.41;96098.75;3548754;40;20477;-74
2021/07/25 05:35:13;;;;;;;24.83;7.33;;;;;;;17.16;92.04;96098.72;3548582;40;20917;-72
2021/07/25 05:37:41;;;;;;;12.10;7.37;;;;;;;17.29;90.85;96092.16;3548783;40;20542;-72
2021/07/25 05:40:11;;;;;;;13.17;7.43;;;;;;;17.12;91.88;96091.28;3550542;40;20549;-72
2021/07/25 05:42:40;;;;;;;14.80;6.67;;;;;;;16.84;94.39;96078.25;3548791;40;20663;-73
2021/07/25 05:45:12;;;;;;;13.47;7.67;;;;;;;16.61;94.98;96083.19;3551628;40;20464;-72
2021/07/25 05:47:40;;;;;;;10.83;7.00;;;;;;;16.91;94.51;96075.81;3548328;40;20739;-71
2021/07/25 05:50:09;;;;;;;17.07;7.10;;;;;;;17.13;93.21;96082.34;3548864;40;20604;-71
2021/07/25 05:52:47;;;;;;;12.43;7.53;;;;;;;17.08;92.80;96090.78;3551714;40;20487;-70
2021/07/25 05:55:19;;;;;;;14.20;7.07;;;;;;;17.42;91.47;96087.25;3549948;40;20467;-72
2021/07/25 05:57:47;;;;;;;14.53;7.80;;;;;;;17.67;89.64;96095.28;3547351;40;20466;-74
2021/07/25 06:00:17;;;;;;;12.27;5.93;;;;;;;17.93;89.38;96090.72;3546991;40;20535;-72
2021/07/25 06:02:56;;;;;;;10.47;6.83;;;;;;;18.10;88.54;96096.03;3550780;40;20514;-71
2021/07/25 06:05:25;;;;;;;13.67;7.33;;;;;;;18.16;85.69;96095.38;3547838;40;21161;-71
2021/07/25 06:07:54;;;;;;;14.50;7.40;;;;;;;18.02;88.71;96102.16;3551649;40;20450;-71
2021/07/25 06:10:23;;;;;;;13.63;7.30;;;;;;;18.31;87.12;96095.56;3547476;40;20472;-71
2021/07/25 06:12:52;;;;;;;10.17;6.70;;;;;;;18.12;86.40;96099.34;3548736;40;20516;-75
2021/07/25 06:15:21;;;;;;;8.30;6.03;;;;;;;17.92;87.71;96094.38;3549532;40;20922;-70
2021/07/25 06:17:49;;;;;;;10.27;6.07;;;;;;;18.04;86.53;96097.53;3547452;40;20825;-70
2021/07/25 06:20:17;;;;;;;17.13;7.43;;;;;;;17.88;88.07;96095.69;3546276;40;20509;-70
2021/07/25 06:22:46;;;;;;;12.03;7.00;;;;;;;17.59;89.27;96096.09;3547693;40;20444;-73
2021/07/25 06:25:18;;;;;;;15.73;6.87;;;;;;;17.42;88.74;96100.50;3547662;40;20483;-72
2021/07/25 06:27:46;;;;;;;10.13;6.73;;;;;;;17.52;90.23;96095.91;3550370;40;20528;-72
2021/07/25 06:30:14;;;;;;;15.50;7.60;;;;;;;17.65;89.72;96103.38;3547797;40;20523;-72
2021/07/25 06:33:01;;;;;;;21.10;6.27;;;;;;;18.05;87.33;96098.34;3547913;40;20535;-71
2021/07/25 06:35:30;;;;;;;10.13;7.07;;;;;;;18.07;86.67;96097.22;3544765;40;20475;-72
2021/07/25 06:38:00;;;;;;;11.70;6.40;;;;;;;18.02;87.84;96088.91;3548776;40;20825;-72
2021/07/25 06:40:29;;;;;;;8.80;5.40;;;;;;;18.25;85.98;96097.06;3548653;40;20796;-70
2021/07/25 06:42:58;;;;;;;62.73;44.20;;;;;;;18.11;86.35;96095.03;3546160;40;20453;-71
2021/07/25 06:45:27;;;;;;;21.60;14.20;;;;;;;18.16;86.37;96085.59;3547848;40;20580;-71
2021/07/25 06:47:55;;;;;;;10.20;5.77;;;;;;;18.13;86.72;96085.09;3546219;40;20713;-69
2021/07/25 06:50:25;;;;;;;12.70;7.47;;;;;;;18.35;86.72;96084.47;3547162;40;20452;-72
2021/07/25 06:52:55;;;;;;;24.03;6.67;;;;;;;18.59;84.85;96085.44;3549879;40;20543;-71
2021/07/25 06:55:25;;;;;;;9.80;6.37;;;;;;;18.61;85.34;96075.47;3546989;40;20460;-73
2021/07/25 06:57:54;;;;;;;12.60;7.27;;;;;;;18.62;85.05;96085.09;3545875;40;20843;-71
2021/07/25 07:00:22;;;;;;;19.37;6.80;;;;;;;18.62;84.98;96084.25;3546340;40;20475;-71
2021/07/25 07:02:51;;;;;;;10.20;6.13;;;;;;;18.43;87.07;96085.47;3549698;40;20545;-71
2021/07/25 07:05:21;;;;;;;9.50;5.70;;;;;;;18.71;85.26;96076.13;3550285;40;20784;-72
2021/07/25 07:07:51;;;;;;;12.23;6.63;;;;;;;19.14;84.49;96073.22;3550754;40;20460;-72
2021/07/25 07:10:21;;;;;;;10.13;6.10;;;;;;;19.62;83.85;96070.50;3548550;40;20841;-74
2021/07/25 07:12:51;;;;;;;13.33;5.50;;;;;;;19.76;81.85;96072.47;3547350;40;20434;-72
2021/07/25 07:15:21;;;;;;;10.33;5.53;;;;;;;19.53;82.74;96067.06;3549261;40;20696;-73
2021/07/25 07:17:50;;;;;;;13.03;6.07;;;;;;;19.57;83.32;96068.38;3548815;40;20701;-72
2021/07/25 07:20:18;;;;;;;11.13;6.10;;;;;;;19.88;80.49;96072.88;3551859;40;20482;-72
2021/07/25 07:22:53;;;;;;;9.33;6.33;;;;;;;20.24;79.34;96065.13;3546028;40;20444;-73
2021/07/25 07:25:22;;;;;;;17.57;6.37;;;;;;;20.00;79.22;96063.50;3545826;40;20481;-71
2021/07/25 07:27:51;;;;;;;13.57;5.43;;;;;;;20.01;78.97;96061.66;3547056;40;20440;-72
2021/07/25 07:30:19;;;;;;;9.80;5.80;;;;;;;20.13;78.57;96062.88;3547101;40;20483;-72
2021/07/25 07:32:47;;;;;;;13.77;6.17;;;;;;;19.93;80.37;96067.84;3547286;40;20775;-70
2021/07/25 07:35:15;;;;;;;9.83;5.23;;;;;;;19.62;81.40;96066.03;3548461;40;20495;-70
2021/07/25 07:37:43;;;;;;;17.10;5.20;;;;;;;19.73;81.19;96067.50;3547653;40;20455;-72
2021/07/25 07:40:12;;;;;;;10.23;5.30;;;;;;;19.74;79.93;96074.47;3547478;40;20573;-71
2021/07/25 07:42:40;;;;;;;7.30;5.10;;;;;;;20.02;79.21;96072.13;3549001;40;20467;-72
2021/07/25 07:45:09;;;;;;;11.43;6.03;;;;;;;19.84;80.74;96076.91;3545032;40;20825;-74
2021/07/25 07:47:37;;;;;;;10.60;5.00;;;;;;;20.06;79.18;96077.91;3547434;40;20462;-72
2021/07/25 07:50:06;;;;;;;17.53;5.87;;;;;;;20.45;78.26;96072.44;3545574;40;20561;-72
2021/07/25 07:52:34;;;;;;;19.67;6.50;;;;;;;20.67;79.88;96072.59;3549120;40;20832;-74
2021/07/25 07:55:02;;;;;;;13.50;6.67;;;;;;;20.07;81.98;96079.53;3549065;40;20744;-70
2021/07/25 07:57:32;;;;;;;13.23;6.13;;;;;;;20.47;80.09;96074.91;3550016;40;20742;-72
2021/07/25 08:00:01;;;;;;;8.27;5.30;;;;;;;20.75;77.65;96072.50;3541536;40;20827;-73
2021/07/25 08:02:29;;;;;;;9.43;5.53;;;;;;;19.95;77.46;96072.00;3539176;40;20849;-74
2021/07/25 08:04:58;;;;;;;7.60;5.10;;;;;;;20.75;76.23;96069.84;3548806;40;20474;-71
2021/07/25 08:07:26;;;;;;;9.90;6.23;;;;;;;21.57;75.28;96073.44;3549414;40;20450;-72
2021/07/25 08:09:54;;;;;;;19.17;10.30;;;;;;;22.05;74.54;96068.41;3552934;40;20770;-72
2021/07/25 08:12:23;;;;;;;9.00;6.17;;;;;;;22.42;72.38;96079.84;3552269;40;20450;-73
2021/07/25 08:14:52;;;;;;;21.70;5.63;;;;;;;22.87;72.20;96075.91;3550333;40;20836;-72
2021/07/25 08:17:24;;;;;;;8.50;4.87;;;;;;;23.96;64.88;96074.38;3551283;40;20862;-73
2021/07/25 08:19:59;;;;;;;9.57;5.17;;;;;;;23.53;67.10;96073.81;3539905;40;20564;-72
2021/07/25 08:22:27;;;;;;;10.77;5.33;;;;;;;22.42;71.26;96066.50;3547575;40;20934;-73
2021/07/25 08:24:55;;;;;;;10.63;5.00;;;;;;;22.09;68.61;96070.50;3548869;40;20833;-72
2021/07/25 08:27:23;;;;;;;9.00;5.10;;;;;;;21.76;70.58;96059.53;3548850;40;20892;-71
2021/07/25 08:29:53;;;;;;;10.23;4.50;;;;;;;21.84;72.35;96071.91;3547835;40;20705;-73
2021/07/25 08:32:21;;;;;;;11.73;3.90;;;;;;;22.16;71.72;96059.91;3549715;40;20804;-71
2021/07/25 08:34:48;;;;;;;7.10;4.30;;;;;;;22.22;69.59;96069.81;3549035;40;20785;-72
2021/07/25 08:37:16;;;;;;;11.20;4.60;;;;;;;22.88;67.54;96066.88;3547517;40;20529;-72
2021/07/25 08:39:45;;;;;;;10.67;4.17;;;;;;;22.17;68.82;96071.38;3547459;40;20462;-73
2021/07/25 08:42:16;;;;;;;7.97;4.63;;;;;;;22.76;67.18;96064.91;3548691;40;21185;-73
2021/07/25 08:44:49;;;;;;;9.00;5.07;;;;;;;22.27;66.81;96075.44;3548488;40;20860;-72
2021/07/25 08:47:37;;;;;;;7.30;3.80;;;;;;;20.61;70.59;96076.00;3539322;40;20488;-72
2021/07/25 08:50:11;;;;;;;7.30;4.50;;;;;;;20.88;72.11;96077.22;3535417;40;21162;-72
2021/07/25 08:52:41;;;;;;;5.30;4.10;;;;;;;22.10;71.63;96069.47;3541569;40;20474;-72
2021/07/25 08:55:14;;;;;;;7.77;4.07;;;;;;;22.41;68.60;96056.88;3538949;40;20460;-74
2021/07/25 08:57:43;;;;;;;13.43;5.23;;;;;;;22.90;68.56;96053.31;3538002;40;21174;-72
2021/07/25 09:00:13;;;;;;;6.60;4.60;;;;;;;21.82;68.94;96058.75;3538180;40;20864;-72
2021/07/25 09:02:43;;;;;;;5.63;5.03;;;;;;;21.97;69.59;96068.53;3530702;40;20870;-73
2021/07/25 09:05:13;;;;;;;7.17;4.80;;;;;;;21.99;69.82;96075.31;3538763;40;20593;-72
2021/07/25 09:07:45;;;;;;;10.97;5.30;;;;;;;21.86;68.44;96076.03;3537590;40;20907;-72
2021/07/25 09:10:15;;;;;;;7.70;5.10;;;;;;;21.66;69.92;96072.28;3540160;40;20561;-72
2021/07/25 09:12:43;;;;;;;6.77;4.40;;;;;;;21.92;68.52;96075.25;3540704;40;20904;-73
2021/07/25 09:15:14;;;;;;;5.40;4.53;;;;;;;22.06;66.44;96076.22;3525196;40;20833;-74
2021/07/25 09:17:44;;;;;;;6.63;4.30;;;;;;;22.35;66.32;96073.66;3538802;40;20570;-71
2021/07/25 09:20:24;;;;;;;6.73;4.07;;;;;;;21.91;67.16;96070.97;3538235;40;20464;-71
2021/07/25 09:22:59;;;;;;;4.50;3.70;;;;;;;21.67;65.46;96071.28;3538205;40;20591;-74
2021/07/25 09:25:32;;;;;;;6.17;4.47;;;;;;;22.85;65.01;96071.75;3543288;40;20705;-73
2021/07/25 09:28:12;;;;;;;7.23;3.77;;;;;;;23.83;60.10;96074.34;3540943;40;20557;-73
2021/07/25 09:30:40;;;;;;;4.70;3.93;;;;;;;23.07;63.08;96075.22;3539709;40;20464;-73
2021/07/25 09:33:34;;;;;;;8.00;4.03;;;;;;;22.72;64.04;96088.53;3540906;40;20510;-73
2021/07/25 09:36:14;;;;;;;10.67;4.40;;;;;;;22.32;66.57;96090.84;3528643;40;20774;-72
2021/07/25 09:38:44;;;;;;;10.40;4.20;;;;;;;22.74;65.29;96093.63;3536601;40;20464;-73
2021/07/25 09:41:23;;;;;;;7.07;3.90;;;;;;;21.61;68.26;96099.50;3538135;40;20734;-71
2021/07/25 09:44:15;;;;;;;6.23;4.40;;;;;;;21.52;69.14;96105.94;3541710;40;20437;-71
2021/07/25 09:46:49;;;;;;;5.93;3.70;;;;;;;21.66;67.59;96091.78;3547308;40;20491;-71
2021/07/25 09:49:19;;;;;;;8.03;4.07;;;;;;;20.68;70.18;96109.66;3550299;40;20506;-73
2021/07/25 09:51:48;;;;;;;6.70;4.30;;;;;;;21.11;69.66;96103.72;3549213;40;20919;-73
2021/07/25 09:54:16;;;;;;;5.30;3.33;;;;;;;20.78;69.15;96111.22;3548960;40;20808;-72
2021/07/25 09:56:44;;;;;;;9.63;4.50;;;;;;;20.90;71.91;96109.78;3548083;40;20900;-73
2021/07/25 09:59:23;;;;;;;7.37;4.23;;;;;;;20.61;73.00;96102.59;3549988;40;20441;-72
2021/07/25 10:01:51;;;;;;;8.13;4.83;;;;;;;20.93;69.55;96109.41;3552908;40;20486;-72
2021/07/25 10:04:23;;;;;;;6.70;3.63;;;;;;;20.89;70.35;96108.94;3547011;40;20476;-72
2021/07/25 10:06:54;;;;;;;7.13;4.27;;;;;;;20.89;69.89;96105.47;3552565;40;20440;-71
2021/07/25 10:09:25;;;;;;;8.67;4.00;;;;;;;20.83;72.08;96095.56;3554032;40;21010;-71
2021/07/25 10:11:58;;;;;;;7.07;4.33;;;;;;;21.11;72.37;96087.75;3551520;40;20454;-71
2021/07/25 10:14:29;;;;;;;9.60;3.93;;;;;;;21.02;71.48;96097.69;3541445;40;20855;-72
2021/07/25 10:17:01;;;;;;;6.60;3.67;;;;;;;21.24;69.78;96092.44;3548085;40;20511;-72
2021/07/25 10:19:36;;;;;;;4.70;3.80;;;;;;;20.94;70.24;96097.78;3548201;40;20966;-72
2021/07/25 10:22:08;;;;;;;3.63;3.17;;;;;;;21.38;70.20;96091.59;3550539;40;20806;-72
2021/07/25 10:24:39;;;;;;;5.00;3.50;;;;;;;21.14;69.39;96090.88;3545367;40;20630;-71
2021/07/25 10:27:08;;;;;;;3.70;3.00;;;;;;;20.74;70.17;96100.13;3550988;40;20781;-74
2021/07/25 10:29:41;;;;;;;6.00;3.60;;;;;;;20.97;70.66;96099.22;3548272;40;20918;-75
2021/07/25 10:32:10;;;;;;;7.10;4.07;;;;;;;20.58;71.61;96092.25;3548719;40;20843;-72
2021/07/25 10:34:40;;;;;;;7.00;3.50;;;;;;;20.76;71.65;96090.16;3545869;40;20836;-73
2021/07/25 10:37:10;;;;;;;4.63;3.37;;;;;;;20.99;69.63;96092.72;3552680;40;20451;-73
2021/07/25 10:39:43;;;;;;;9.63;4.37;;;;;;;20.80;70.58;96096.75;3541310;40;20456;-72
2021/07/25 10:42:14;;;;;;;8.50;4.33;;;;;;;20.76;71.20;96099.94;3546178;40;20432;-72
2021/07/25 10:44:43;;;;;;;5.07;4.10;;;;;;;20.83;70.69;96098.22;3548653;40;20498;-73
2021/07/25 10:47:24;;;;;;;7.87;4.20;;;;;;;20.72;70.33;96097.66;3548156;40;20581;-73
2021/07/25 10:50:19;;;;;;;5.43;3.57;;;;;;;20.47;72.58;96104.16;3552745;40;20815;-75
2021/07/25 10:53:12;;;;;;;7.30;4.33;;;;;;;19.94;72.76;96094.25;3548151;40;20759;-74
2021/07/25 10:55:45;;;;;;;7.50;4.00;;;;;;;19.99;74.11;96103.53;3535031;40;20733;-74
2021/07/25 10:58:15;;;;;;;4.97;3.67;;;;;;;20.03;75.79;96099.50;3547501;40;20464;-73
2021/07/25 11:00:46;;;;;;;7.93;4.23;;;;;;;19.88;77.10;96097.63;3548871;40;20693;-76
2021/07/25 11:03:43;;;;;;;10.13;4.20;;;;;;;19.88;78.42;96102.94;3547267;40;20454;-74
2021/07/25 11:06:19;;;;;;;8.33;4.83;;;;;;;19.87;78.86;96114.53;3546801;40;20451;-76
2021/07/25 11:08:50;;;;;;;10.80;5.10;;;;;;;19.80;79.57;96115.41;3547745;40;20546;-76
2021/07/25 11:11:54;;;;;;;8.50;4.90;;;;;;;19.75;81.31;96113.28;3551575;40;20479;-76
2021/07/25 11:15:07;;;;;;;9.30;4.70;;;;;;;19.52;83.42;96118.50;3531102;40;20546;-75
2021/07/25 11:17:54;;;;;;;7.20;5.00;;;;;;;19.24;85.55;96102.22;3549337;40;20731;-75
2021/07/25 11:20:33;;;;;;;12.77;6.93;;;;;;;19.14;85.69;96115.69;3551800;40;20862;-73
2021/07/25 11:23:04;;;;;;;10.20;5.63;;;;;;;19.20;85.69;96124.78;3548465;40;20828;-75
2021/07/25 11:25:34;;;;;;;6.00;5.07;;;;;;;19.01;83.37;96131.28;3549348;40;20800;-75
2021/07/25 11:28:04;;;;;;;7.10;4.60;;;;;;;18.78;82.02;96127.50;3547680;40;20484;-76
2021/07/25 11:31:08;;;;;;;9.30;5.37;;;;;;;18.63;83.84;96134.47;3545657;40;20475;-73
2021/07/25 11:33:51;;;;;;;8.10;5.13;;;;;;;18.62;84.65;96137.28;3551042;40;21108;-75
2021/07/25 11:36:21;;;;;;;7.97;5.00;;;;;;;18.55;83.97;96134.50;3551798;40;20833;-72
2021/07/25 11:38:55;;;;;;;8.23;4.63;;;;;;;18.33;84.89;96128.84;3547791;40;20620;-74
2021/07/25 11:41:26;;;;;;;12.93;5.30;;;;;;;18.15;85.24;96122.84;3548553;40;20475;-74
2021/07/25 11:43:59;;;;;;;9.80;5.60;;;;;;;18.20;84.33;96117.91;3547421;40;20868;-74
2021/07/25 11:46:33;;;;;;;13.30;4.93;;;;;;;18.07;85.20;96113.09;3547239;40;20841;-74
2021/07/25 11:49:16;;;;;;;10.23;6.20;;;;;;;18.31;86.84;96109.63;3549572;40;20451;-75